Archives de nos stations météo

Station météo de Romilly-sur-Aigre

Altitude de la station : 111 m






Données météorologiques pour le 06/02/2023
Date
Heure
Températures Humidité Point de rosée Vitesse
du vent
Direction Rafales Windchill Pression Pluviométrie
Cumul
Date
Heure
Températures Humidité Point de rosée Vitesse
du vent
Direction Rafales Windchill Pression Pluviométrie
Cumul
06/02/2023 23:560.8 °C90 %-0.7 °C18 km/hNE24 km/h-0.71034 hPa0.0 mm
06/02/2023 23:410.9 °C89 %-0.7 °C18 km/hNE26 km/h-0.71034 hPa0.0 mm
06/02/2023 23:161.1 °C89 %-0.6 °C19 km/hNNE27 km/h-0.61034 hPa0.0 mm
06/02/2023 23:011.0 °C89 %-0.6 °C18 km/hNNE24 km/h-0.61034 hPa0.0 mm
06/02/2023 22:461.1 °C88 %-0.7 °C16 km/hNNE24 km/h-0.71034 hPa0.0 mm
06/02/2023 22:311.4 °C88 %-0.4 °C15 km/hNE23 km/h-0.41035 hPa0.0 mm
06/02/2023 22:161.2 °C89 %-0.4 °C16 km/hNE23 km/h-0.41035 hPa0.0 mm
06/02/2023 22:011.0 °C89 %-0.6 °C13 km/hNE23 km/h-0.61035 hPa0.0 mm
06/02/2023 21:460.8 °C89 %-0.8 °C10 km/hNE18 km/h-0.81035 hPa0.0 mm
06/02/2023 21:310.6 °C90 %-0.8 °C13 km/hNE19 km/h-0.81035 hPa0.0 mm
06/02/2023 21:160.7 °C90 %-0.7 °C13 km/hNE23 km/h-0.71035 hPa0.0 mm
06/02/2023 21:010.8 °C89 %-0.8 °C11 km/hNNE19 km/h-0.81035 hPa0.0 mm
06/02/2023 20:461.1 °C89 %-0.5 °C13 km/hNE19 km/h-0.51035 hPa0.0 mm
06/02/2023 20:311.4 °C89 %-0.2 °C11 km/hNNE18 km/h-0.21035 hPa0.0 mm
06/02/2023 20:161.5 °C90 %0.0 °C13 km/hNNE19 km/h0.01035 hPa0.0 mm
06/02/2023 20:011.3 °C90 %-0.2 °C13 km/hNE19 km/h-0.21036 hPa0.0 mm
06/02/2023 19:511.4 °C89 %-0.2 °C11 km/hNE16 km/h-0.21036 hPa0.0 mm
06/02/2023 19:411.7 °C90 %0.2 °C13 km/hNE18 km/h0.21036 hPa0.0 mm
06/02/2023 19:261.8 °C89 %0.2 °C11 km/hNE19 km/h0.21036 hPa0.0 mm
06/02/2023 19:112.1 °C89 %0.4 °C11 km/hNE18 km/h0.41036 hPa0.0 mm
06/02/2023 18:562.4 °C87 %0.5 °C10 km/hNE16 km/h0.51036 hPa0.0 mm
06/02/2023 18:413.1 °C86 %1.0 °C10 km/hNE15 km/h1.01036 hPa0.0 mm
06/02/2023 18:164.1 °C85 %1.8 °C11 km/hNE18 km/h1.81036 hPa0.0 mm
06/02/2023 18:014.6 °C83 %2.0 °C10 km/hNE16 km/h2.01036 hPa0.0 mm
06/02/2023 17:465.1 °C82 %2.2 °C11 km/hNE18 km/h2.21036 hPa0.0 mm
06/02/2023 17:315.5 °C81 %2.5 °C15 km/hNE23 km/h2.51036 hPa0.0 mm
06/02/2023 17:166.1 °C79 %2.7 °C18 km/hNE24 km/h2.71036 hPa0.0 mm
06/02/2023 17:016.3 °C78 %2.7 °C21 km/hNE29 km/h2.71036 hPa0.0 mm
06/02/2023 16:466.4 °C79 %3.0 °C19 km/hNE29 km/h3.01036 hPa0.0 mm
06/02/2023 16:316.5 °C79 %3.1 °C23 km/hNE31 km/h3.11036 hPa0.0 mm
06/02/2023 16:166.6 °C79 %3.2 °C23 km/hNE31 km/h3.21036 hPa0.0 mm
06/02/2023 16:016.7 °C80 %3.5 °C23 km/hNE32 km/h3.51036 hPa0.0 mm
06/02/2023 15:466.4 °C80 %3.2 °C26 km/hNNE34 km/h3.21036 hPa0.0 mm
06/02/2023 15:316.2 °C80 %3.0 °C24 km/hNE34 km/h3.01036 hPa0.0 mm
06/02/2023 15:166.4 °C81 %3.4 °C24 km/hNNE34 km/h3.41036 hPa0.0 mm
06/02/2023 15:066.8 °C79 %3.4 °C24 km/hNE34 km/h3.41037 hPa0.0 mm
06/02/2023 14:466.8 °C81 %3.7 °C29 km/hNNE39 km/h3.71037 hPa0.0 mm
06/02/2023 14:316.9 °C82 %4.1 °C24 km/hNE37 km/h4.11037 hPa0.0 mm
06/02/2023 14:166.8 °C83 %4.1 °C26 km/hNNE37 km/h4.11037 hPa0.0 mm
06/02/2023 14:016.4 °C84 %3.9 °C23 km/hNE35 km/h3.91037 hPa0.0 mm
06/02/2023 13:465.9 °C85 %3.6 °C23 km/hNNE32 km/h3.61037 hPa0.0 mm
06/02/2023 13:315.8 °C86 %3.6 °C21 km/hNE29 km/h3.61038 hPa0.0 mm
06/02/2023 13:166.1 °C84 %3.6 °C19 km/hNE26 km/h3.61038 hPa0.0 mm
06/02/2023 13:016.2 °C86 %4.0 °C21 km/hNE31 km/h4.01038 hPa0.0 mm
06/02/2023 12:465.5 °C86 %3.3 °C23 km/hNE32 km/h3.31038 hPa0.0 mm
06/02/2023 12:315.6 °C89 %3.9 °C21 km/hENE31 km/h3.91038 hPa0.0 mm
06/02/2023 12:165.3 °C86 %3.1 °C21 km/hENE27 km/h3.11038 hPa0.0 mm
06/02/2023 12:015.2 °C89 %3.5 °C18 km/hNE27 km/h3.51039 hPa0.0 mm
06/02/2023 11:463.8 °C90 %2.3 °C18 km/hNE26 km/h2.31039 hPa0.0 mm
06/02/2023 11:363.9 °C89 %2.3 °C21 km/hNE27 km/h2.31039 hPa0.0 mm
06/02/2023 11:164.2 °C91 %2.8 °C19 km/hNE27 km/h2.81038 hPa0.0 mm
06/02/2023 11:013.9 °C93 %2.9 °C19 km/hNE29 km/h2.91039 hPa0.0 mm
06/02/2023 10:463.4 °C94 %2.5 °C19 km/hNE27 km/h2.51039 hPa0.0 mm
06/02/2023 10:312.9 °C95 %2.2 °C19 km/hNE27 km/h2.21038 hPa0.0 mm
06/02/2023 10:162.4 °C95 %1.7 °C21 km/hNNE29 km/h1.71039 hPa0.0 mm
06/02/2023 10:012.0 °C96 %1.4 °C18 km/hNNE34 km/h1.41039 hPa0.0 mm
06/02/2023 09:461.8 °C96 %1.2 °C16 km/hNNE26 km/h1.21039 hPa0.0 mm
06/02/2023 09:311.4 °C96 %0.9 °C15 km/hNNE24 km/h0.91039 hPa0.0 mm
06/02/2023 09:161.2 °C96 %0.6 °C16 km/hNNE26 km/h0.61039 hPa0.0 mm
06/02/2023 09:010.7 °C96 %0.2 °C16 km/hNNE24 km/h0.21039 hPa0.0 mm
06/02/2023 08:460.6 °C96 %0.0 °C15 km/hNNE24 km/h0.01039 hPa0.0 mm
06/02/2023 08:310.4 °C96 %-0.1 °C18 km/hNNE24 km/h-0.11039 hPa0.0 mm
06/02/2023 08:160.3 °C96 %-0.2 °C15 km/hNNE23 km/h-0.21039 hPa0.0 mm
06/02/2023 08:010.4 °C96 %-0.2 °C16 km/hNNE24 km/h-0.21039 hPa0.0 mm
06/02/2023 07:510.3 °C96 %-0.2 °C16 km/hNNE21 km/h-0.21039 hPa0.0 mm
06/02/2023 07:310.3 °C96 %-0.2 °C15 km/hNNE21 km/h-0.21039 hPa0.0 mm
06/02/2023 07:160.3 °C96 %-0.2 °C15 km/hNNE24 km/h-0.21039 hPa0.0 mm
06/02/2023 07:010.3 °C95 %-0.4 °C13 km/hNNE19 km/h-0.41039 hPa0.0 mm
06/02/2023 06:460.3 °C95 %-0.4 °C15 km/hNNE23 km/h-0.41039 hPa0.0 mm
06/02/2023 06:310.6 °C96 %0.0 °C15 km/hNNE23 km/h0.01039 hPa0.0 mm
06/02/2023 06:160.5 °C95 %-0.2 °C16 km/hNNE21 km/h-0.21039 hPa0.0 mm
06/02/2023 06:010.3 °C95 %-0.4 °C15 km/hNNE21 km/h-0.41039 hPa0.0 mm
06/02/2023 05:460.3 °C95 %-0.4 °C15 km/hNNE21 km/h-0.41039 hPa0.0 mm
06/02/2023 05:310.5 °C95 %-0.2 °C11 km/hNNE18 km/h-0.21039 hPa0.0 mm
06/02/2023 05:160.7 °C95 %0.0 °C13 km/hNNE19 km/h0.01039 hPa0.0 mm
06/02/2023 05:010.8 °C95 %0.1 °C15 km/hNNE19 km/h0.11039 hPa0.0 mm
06/02/2023 04:510.8 °C95 %0.1 °C15 km/hNNE21 km/h0.11039 hPa0.0 mm
06/02/2023 04:310.7 °C95 %0.0 °C15 km/hNNE23 km/h0.01039 hPa0.0 mm
06/02/2023 04:210.7 °C95 %0.0 °C15 km/hNNE21 km/h0.01039 hPa0.0 mm
06/02/2023 04:010.7 °C94 %-0.1 °C13 km/hNNE18 km/h-0.11039 hPa0.0 mm
06/02/2023 03:461.1 °C94 %0.2 °C15 km/hNNE19 km/h0.21040 hPa0.0 mm
06/02/2023 03:311.3 °C94 %0.4 °C8 km/hNE15 km/h0.41040 hPa0.0 mm
06/02/2023 03:211.2 °C93 %0.2 °C13 km/hNNE19 km/h0.21040 hPa0.0 mm
06/02/2023 03:061.5 °C94 %0.6 °C15 km/hNNE21 km/h0.61040 hPa0.0 mm
06/02/2023 02:511.6 °C93 %0.6 °C16 km/hNNE26 km/h0.61040 hPa0.0 mm
06/02/2023 02:311.7 °C93 %0.7 °C16 km/hNNE26 km/h0.71040 hPa0.0 mm
06/02/2023 02:161.8 °C93 %0.8 °C16 km/hNNE26 km/h0.81040 hPa0.0 mm
06/02/2023 02:011.7 °C93 %0.7 °C15 km/hNNE23 km/h0.71040 hPa0.0 mm
06/02/2023 01:461.6 °C92 %0.5 °C13 km/hNNE19 km/h0.51040 hPa0.0 mm
06/02/2023 01:311.8 °C92 %0.7 °C15 km/hNNE21 km/h0.71040 hPa0.0 mm
06/02/2023 01:161.8 °C92 %0.6 °C13 km/hNNE18 km/h0.61041 hPa0.0 mm
06/02/2023 01:011.9 °C92 %0.7 °C11 km/hNNE19 km/h0.71041 hPa0.0 mm
06/02/2023 00:462.2 °C91 %0.8 °C13 km/hNNE19 km/h0.81041 hPa0.0 mm
06/02/2023 00:312.3 °C91 %1.0 °C15 km/hNNE23 km/h1.01041 hPa0.0 mm
06/02/2023 00:162.4 °C90 %0.9 °C15 km/hNNE24 km/h0.91041 hPa0.0 mm
06/02/2023 00:022.5 °C90 %1.0 °C15 km/hNNE26 km/h1.01041 hPa0.0 mm


Minima :

Température : 0.3 °C
Humidité : 78 %
Point de rosée : -0.8 °C
Vent moyen : 8 km/h
Windchill : -0.8
Pression atm. : 1034 hPa
Maxima :

Température : 6.9 °C
Humidité : 96 %
Point de rosée : 4.1 °C
Vent moyen : 29 km/h
Windchill : 4.1
Pression atm. : 1041 hPa
Rafales max : 39 km/h
Cumul de pluie sur 24H : 0 mm

Romilly-sur-Aigre est une commune du département Eure-et-Loir (28).
La station météorologique du réseau de l'association la plus proche de Romilly-sur-Aigre est celle de Mainvilliers
Site du propriétaire de la station : http://www.sohade.fr


Descriptif du réseau de station de l'association Météo Centre (R.S.M.C)

Carte de la région Centre - Val de Loire

Carte de la région Centre - Val de Loire couvert par notre réseau météorologique

L'association météo centre et ses bénévoles développent et gère ce réseau. Il regroupe des stations météorologiques semi-professionnelles de marque Davis Instruments et est notamment composé de Davis Vantage Pro 2 mais aussi de Davis Vantage Vue.

Ce sont des passionnés de météorologie qui, avec ou sans l'aide de l'association, implantent ce type de matériel depuis la création de notre organisation en 2011.

Les données de chaque station de réseau sont hébergées sur le serveur de l'association. Elles sont ensuite mises gratuitement à votre disposition sur cette page, mais également sur la carte d'observation météorologique du Centre - Val de Loire.

Certaines stations sont installées en dehors de notre région. Elles permettent d'avoir une vision plus large des conditions météorologiques autour de notre territoire, retrouvez ici la carte de notre réseau de station Météo Centre (R.S.M.C).

Notre réseau surveille donc en permanence les conditions météo dans la région Centre - Val de Loire. Si vous possédez du matériel météo de marque Davis, faite comme plus de 60 autres passionnés, contactez nous pour nous rejoindre.


Contenu des archives météo de notre réseau

Chaque station météo du réseau émet les données suivantes toutes les 15 à 30 minutes :

Station météorologique Davis Vantage Pro 2

Exemple de station météorologique du réseau de station Météo Centre

  • la température extérieure
  • l'humidité
  • le point de rosée
  • la vitesse du vent
  • la direction du vent
  • les rafales
  • le windchill (refroidissement éolien)
  • la pression
  • le cumul de pluie

Nous archivons ces informations météorologiques et nous les mettons gratuitement à disposition du grand public. Nous les partageons également avec des professionnels, des collectivités voire des établissements publics quand ils en expriment le besoin.

Toutefois, les archives des stations ne sont pas toutes aussi anciennes puisque les installations se déroulent année après année. Retrouvez ces archives météo pour la région Centre - Val de Loire en cliquant ici.

Merci à tous les propriétaires de stations météorologiques de partager leurs données mais aussi de les rendre accessibles au plus grand nombre.